Terminal Aerodrome Forecast
Issued by NWS Mt. Holly, NJ

Current Version | Previous Version | Text Only | Print | Product List | Glossary On
Versions: 1 2 3 4 5 6 7 8 9 10 11 12 13 14 15 16 17 18 19 20 21 22 23 24 25 26 27
366
FTUS41 KPHI 281928 AAA
TAFACY
TAF AMD
KACY 281928Z 2819/2918 10010KT 6SM -RA BR OVC004
     FM282300 06005KT 2SM SHRA BKN003 OVC015
     FM290300 36005KT P6SM BKN008 OVC010
     FM290900 35008KT P6SM BKN015
     FM291100 35010KT P6SM SCT020 BKN040
     FM291400 35012KT P6SM SCT250=

USA.gov is the U.S. government's official web portal to all federal, state and local government web resources and services.